Time;durP1;ratioP1;P1;durP2;ratioP2;P2;SDS_P1;SDS_P2;PMS_P1;PMS_P2;Temp;Humidity;BMP_temperature;BMP_pressure;BME280_temperature;BME280_humidity;BME280_pressure;Samples;Min_cycle;Max_cycle;Signal;HPM_P1;HPM_P2
2024/01/31 00:00:53;;;;;;;2.80;1.40;;;;;;;8.42;100.00;102099.84;5199555;28;20029;-74
2024/01/31 00:03:24;;;;;;;3.30;2.10;;;;;;;8.24;100.00;102101.63;5200355;28;20072;-74
2024/01/31 00:05:54;;;;;;;2.20;1.35;;;;;;;8.19;100.00;102096.41;5199697;28;20372;-74
2024/01/31 00:08:24;;;;;;;2.60;1.42;;;;;;;8.26;100.00;102092.94;5198982;28;20023;-74
2024/01/31 00:10:55;;;;;;;1.42;1.10;;;;;;;8.18;100.00;102094.69;5200694;28;20033;-74
2024/01/31 00:13:25;;;;;;;2.17;1.13;;;;;;;8.22;100.00;102093.81;5200660;28;20022;-74
2024/01/31 00:15:55;;;;;;;3.67;1.15;;;;;;;8.20;100.00;102094.69;5199707;28;20482;-73
2024/01/31 00:18:26;;;;;;;1.88;1.10;;;;;;;8.10;100.00;102090.31;5199413;28;20116;-74
2024/01/31 00:20:56;;;;;;;1.40;0.95;;;;;;;8.13;100.00;102091.19;5199711;28;20022;-73
2024/01/31 00:23:27;;;;;;;2.85;1.17;;;;;;;8.06;100.00;102099.88;5197743;28;20025;-74
2024/01/31 00:25:57;;;;;;;2.42;0.90;;;;;;;8.07;100.00;102096.38;5194465;28;20156;-74
2024/01/31 00:28:28;;;;;;;2.45;1.02;;;;;;;8.12;100.00;102094.66;5196574;28;20021;-74
2024/01/31 00:30:58;;;;;;;2.70;1.17;;;;;;;8.14;100.00;102087.72;5198091;28;20521;-74
2024/01/31 00:33:28;;;;;;;2.80;1.33;;;;;;;7.99;100.00;102098.16;5200128;28;20025;-74
2024/01/31 00:35:59;;;;;;;1.70;1.08;;;;;;;8.10;100.00;102105.94;5199334;28;20498;-74
2024/01/31 00:38:29;;;;;;;4.50;1.77;;;;;;;8.10;100.00;102096.41;5200004;28;20104;-74
2024/01/31 00:41:00;;;;;;;3.17;1.73;;;;;;;8.18;100.00;102099.88;5199488;28;20021;-74
2024/01/31 00:43:30;;;;;;;3.10;1.52;;;;;;;8.14;100.00;102095.53;5199601;28;20518;-74
2024/01/31 00:46:04;;;;;;;2.78;1.40;;;;;;;8.10;100.00;102101.63;5199208;28;20550;-74
2024/01/31 00:48:34;;;;;;;3.88;1.80;;;;;;;8.14;100.00;102102.47;5200054;28;20459;-74
2024/01/31 00:51:10;;;;;;;3.72;1.65;;;;;;;8.11;100.00;102108.56;5199190;28;20023;-74
2024/01/31 00:53:41;;;;;;;3.17;1.67;;;;;;;8.13;100.00;102101.63;5198016;28;20029;-74
2024/01/31 00:56:11;;;;;;;2.85;1.70;;;;;;;8.14;100.00;102107.66;5197499;28;20028;-74
2024/01/31 00:58:41;;;;;;;2.97;1.65;;;;;;;8.11;100.00;102112.88;5199640;28;20029;-74
2024/01/31 01:01:12;;;;;;;6.10;1.90;;;;;;;8.03;100.00;102107.69;5199039;28;20430;-74
2024/01/31 01:03:43;;;;;;;3.72;1.63;;;;;;;8.09;100.00;102115.50;5199472;28;20029;-74
2024/01/31 01:06:13;;;;;;;3.20;1.80;;;;;;;8.08;100.00;102124.16;5188288;28;20129;-74
2024/01/31 01:08:43;;;;;;;6.45;2.28;;;;;;;8.17;100.00;102125.88;5195827;28;20497;-74
2024/01/31 01:11:14;;;;;;;2.88;1.60;;;;;;;8.13;100.00;102122.44;5197269;28;20048;-74
2024/01/31 01:13:47;;;;;;;5.25;2.42;;;;;;;8.02;100.00;102124.19;5196672;28;20029;-74
2024/01/31 01:16:17;;;;;;;4.40;2.20;;;;;;;8.15;100.00;102125.91;5195581;28;20025;-74
2024/01/31 01:18:48;;;;;;;4.57;2.15;;;;;;;8.23;100.00;102129.38;5193394;28;20030;-73
2024/01/31 01:21:18;;;;;;;5.55;2.47;;;;;;;8.18;100.00;102123.34;5184918;28;20303;-73
2024/01/31 01:23:48;;;;;;;6.60;2.20;;;;;;;8.09;100.00;102122.44;5196871;28;20402;-74
2024/01/31 01:26:19;;;;;;;4.90;2.20;;;;;;;8.08;100.00;102125.91;5194462;28;20025;-74
2024/01/31 01:28:49;;;;;;;4.93;1.70;;;;;;;8.14;100.00;102131.09;5196087;28;20039;-73
2024/01/31 01:31:19;;;;;;;4.03;2.20;;;;;;;8.13;100.00;102131.97;5197125;28;20418;-74
2024/01/31 01:33:49;;;;;;;5.50;2.30;;;;;;;8.12;100.00;102131.13;5197401;28;20045;-73
2024/01/31 01:36:20;;;;;;;7.18;2.70;;;;;;;8.02;100.00;102134.59;5175449;28;20056;-74
2024/01/31 01:38:50;;;;;;;4.70;2.70;;;;;;;7.96;100.00;102134.59;5194676;28;20041;-72
2024/01/31 01:41:20;;;;;;;3.78;2.00;;;;;;;8.00;100.00;102125.03;5196219;28;20029;-74
2024/01/31 01:43:50;;;;;;;4.82;1.98;;;;;;;7.93;100.00;102128.53;5194027;28;20114;-74
2024/01/31 01:46:22;;;;;;;4.22;1.80;;;;;;;7.92;100.00;102134.59;5192887;28;20136;-74
2024/01/31 01:48:53;;;;;;;3.80;1.85;;;;;;;7.92;100.00;102132.88;5196512;28;20379;-74
2024/01/31 01:51:25;;;;;;;3.47;1.65;;;;;;;7.79;100.00;102144.13;5196846;28;20044;-74
2024/01/31 01:53:56;;;;;;;3.10;1.67;;;;;;;7.77;100.00;102142.38;5186115;28;20033;-73
2024/01/31 01:56:26;;;;;;;4.22;1.75;;;;;;;7.78;100.00;102139.81;5193063;28;20032;-74
2024/01/31 01:58:57;;;;;;;2.47;1.50;;;;;;;7.80;100.00;102152.81;5194547;28;20029;-74
2024/01/31 02:01:27;;;;;;;6.30;1.60;;;;;;;7.73;100.00;102151.91;5196245;28;20056;-74
2024/01/31 02:03:58;;;;;;;3.90;1.80;;;;;;;7.64;100.00;102144.13;5196360;28;20029;-73
2024/01/31 02:06:29;;;;;;;3.17;1.45;;;;;;;7.66;100.00;102155.41;5196111;28;20025;-74
2024/01/31 02:09:00;;;;;;;5.55;1.63;;;;;;;7.68;100.00;102163.22;5196363;28;20030;-74
2024/01/31 02:11:31;;;;;;;3.90;1.60;;;;;;;7.64;100.00;102162.34;5197408;28;20143;-74
2024/01/31 02:14:01;;;;;;;5.70;2.13;;;;;;;7.59;100.00;102166.66;5199959;28;20026;-74
2024/01/31 02:16:31;;;;;;;2.75;1.60;;;;;;;7.60;100.00;102175.31;5200735;28;20072;-74
2024/01/31 02:19:02;;;;;;;2.90;1.45;;;;;;;7.57;100.00;102171.00;5199826;28;20030;-74
2024/01/31 02:21:34;;;;;;;7.80;1.80;;;;;;;7.52;100.00;102172.72;5201320;28;20459;-74
2024/01/31 02:24:05;;;;;;;3.25;1.52;;;;;;;7.55;100.00;102180.50;5198299;28;20025;-74
2024/01/31 02:26:35;;;;;;;4.65;1.52;;;;;;;7.50;100.00;102176.19;5200316;28;20037;-74
2024/01/31 02:29:05;;;;;;;3.45;1.50;;;;;;;7.56;100.00;102177.03;5198887;28;20390;-74
2024/01/31 02:31:36;;;;;;;2.80;1.40;;;;;;;7.57;100.00;102178.81;5200673;28;20100;-74
2024/01/31 02:34:06;;;;;;;5.55;1.73;;;;;;;7.53;100.00;102182.25;5198913;28;20499;-74
2024/01/31 02:36:36;;;;;;;3.05;1.30;;;;;;;7.55;100.00;102182.25;5200097;28;20405;-74
2024/01/31 02:39:07;;;;;;;2.65;1.40;;;;;;;7.53;100.00;102179.66;5200196;28;20242;-74
2024/01/31 02:41:37;;;;;;;3.80;1.30;;;;;;;7.54;100.00;102188.34;5201091;28;20025;-74
2024/01/31 02:44:07;;;;;;;4.10;1.80;;;;;;;7.42;100.00;102186.56;5199745;28;20022;-74
2024/01/31 02:46:38;;;;;;;4.28;1.70;;;;;;;7.44;100.00;102192.66;5199921;28;20033;-74
2024/01/31 02:49:08;;;;;;;3.28;1.55;;;;;;;7.48;100.00;102196.97;5198257;28;20412;-74
2024/01/31 02:51:38;;;;;;;7.10;2.05;;;;;;;7.57;100.00;102202.22;5197876;28;20353;-74
2024/01/31 02:54:08;;;;;;;3.13;1.40;;;;;;;7.54;100.00;102215.19;5199910;28;20021;-74
2024/01/31 02:56:39;;;;;;;4.18;1.50;;;;;;;7.58;100.00;102209.16;5198292;28;20041;-75
2024/01/31 02:59:09;;;;;;;7.18;1.50;;;;;;;7.58;100.00;102213.47;5200015;28;20049;-74
2024/01/31 03:01:44;;;;;;;4.30;1.90;;;;;;;7.41;100.00;102218.66;5200574;28;20095;-74
2024/01/31 03:04:15;;;;;;;2.92;1.83;;;;;;;7.40;100.00;102219.50;5200105;28;20037;-74
2024/01/31 03:06:45;;;;;;;2.97;1.90;;;;;;;7.36;100.00;102222.09;5199718;28;20644;-74
2024/01/31 03:09:15;;;;;;;5.32;2.13;;;;;;;7.44;100.00;102215.16;5199025;28;20040;-74
2024/01/31 03:11:45;;;;;;;2.72;1.90;;;;;;;7.26;100.00;102219.44;5200289;28;20492;-74
2024/01/31 03:14:16;;;;;;;5.53;1.40;;;;;;;7.35;100.00;102216.00;5199552;28;20036;-75
2024/01/31 03:16:46;;;;;;;2.25;1.50;;;;;;;7.37;100.00;102222.06;5198924;28;20112;-75
2024/01/31 03:19:16;;;;;;;5.72;1.77;;;;;;;7.34;100.00;102229.03;5198602;28;20079;-75
2024/01/31 03:21:46;;;;;;;2.95;1.30;;;;;;;7.22;100.00;102218.56;5198155;28;20135;-75
2024/01/31 03:24:17;;;;;;;3.45;1.10;;;;;;;7.16;100.00;102222.88;5197966;28;20033;-75
2024/01/31 03:26:47;;;;;;;3.65;1.23;;;;;;;7.14;100.00;102229.78;5199157;28;20056;-75
2024/01/31 03:29:17;;;;;;;3.70;1.60;;;;;;;7.11;100.00;102232.38;5199065;28;20033;-75
2024/01/31 03:31:48;;;;;;;3.53;1.40;;;;;;;7.05;100.00;102234.94;5198297;28;20422;-75
2024/01/31 03:34:19;;;;;;;2.50;1.42;;;;;;;7.07;100.00;102228.88;5200003;28;20044;-75
2024/01/31 03:36:50;;;;;;;4.47;1.63;;;;;;;7.08;100.00;102229.78;5196960;28;20034;-75
2024/01/31 03:39:20;;;;;;;2.67;1.20;;;;;;;6.95;100.00;102231.41;5194235;28;20029;-74
2024/01/31 03:41:50;;;;;;;3.70;1.52;;;;;;;7.00;100.00;102236.66;5199866;28;20044;-75
2024/01/31 03:44:21;;;;;;;4.93;1.20;;;;;;;7.01;100.00;102240.97;5198511;28;20036;-74
2024/01/31 03:46:51;;;;;;;1.88;1.02;;;;;;;7.05;100.00;102240.13;5197503;28;20486;-75
2024/01/31 03:49:21;;;;;;;2.03;1.13;;;;;;;6.93;100.00;102245.28;5194353;28;20025;-74
2024/01/31 03:51:52;;;;;;;3.15;0.80;;;;;;;7.02;100.00;102241.00;5197720;28;20052;-74
2024/01/31 03:54:22;;;;;;;2.20;0.85;;;;;;;6.98;100.00;102239.25;5199170;28;20036;-75
2024/01/31 03:56:52;;;;;;;2.08;0.77;;;;;;;6.98;100.00;102240.97;5198887;28;20028;-74
2024/01/31 03:59:23;;;;;;;1.83;0.70;;;;;;;6.87;100.00;102245.22;5198374;28;20036;-74
2024/01/31 04:01:54;;;;;;;1.48;0.68;;;;;;;6.93;100.00;102243.53;5199365;28;20033;-74
2024/01/31 04:04:24;;;;;;;2.05;0.63;;;;;;;6.93;100.00;102250.47;5198556;28;20039;-74
2024/01/31 04:06:54;;;;;;;3.80;0.90;;;;;;;6.79;100.00;102241.72;5199717;28;20490;-74
2024/01/31 04:09:24;;;;;;;4.55;1.00;;;;;;;6.81;100.00;102240.88;5198030;28;20034;-74
2024/01/31 04:11:55;;;;;;;2.10;1.00;;;;;;;6.81;100.00;102242.59;5197843;28;20056;-74
2024/01/31 04:14:25;;;;;;;1.90;0.70;;;;;;;6.85;100.00;102252.13;5197987;28;20263;-75
2024/01/31 04:16:55;;;;;;;2.25;0.60;;;;;;;6.84;100.00;102256.50;5197100;28;20113;-74
2024/01/31 04:19:25;;;;;;;3.97;1.08;;;;;;;6.75;100.00;102247.75;5197769;28;20024;-75
2024/01/31 04:21:56;;;;;;;1.45;0.63;;;;;;;6.79;100.00;102249.50;5198525;28;20486;-74
2024/01/31 04:24:26;;;;;;;2.67;0.70;;;;;;;6.78;100.00;102245.19;5198257;28;20269;-74
2024/01/31 04:26:56;;;;;;;2.10;0.60;;;;;;;6.64;99.75;102254.59;5198546;28;20037;-74
2024/01/31 04:29:26;;;;;;;2.50;0.90;;;;;;;6.66;99.95;102245.97;5196507;28;20061;-74
2024/01/31 04:31:57;;;;;;;1.48;0.70;;;;;;;6.70;98.37;102246.84;5199039;28;20635;-74
2024/01/31 04:34:27;;;;;;;1.27;0.60;;;;;;;6.72;97.47;102245.13;5197891;28;20442;-74
2024/01/31 04:36:57;;;;;;;1.98;0.80;;;;;;;6.63;96.43;102247.66;5197720;28;20021;-74
2024/01/31 04:39:28;;;;;;;0.98;0.38;;;;;;;6.66;96.81;102252.88;5198257;28;20025;-74
2024/01/31 04:41:59;;;;;;;1.20;0.32;;;;;;;6.64;96.44;102252.00;5198306;28;20025;-74
2024/01/31 04:44:29;;;;;;;1.63;0.30;;;;;;;6.67;97.04;102241.63;5194759;28;20029;-74
2024/01/31 04:47:00;;;;;;;0.20;0.20;;;;;;;6.65;97.18;102231.25;5196932;28;20036;-73
2024/01/31 04:49:30;;;;;;;1.48;0.40;;;;;;;6.67;97.73;102239.03;5196953;28;20033;-74
2024/01/31 04:52:00;;;;;;;1.70;0.50;;;;;;;6.71;97.21;102249.47;5197130;28;20052;-73
2024/01/31 04:54:30;;;;;;;1.27;0.50;;;;;;;6.58;97.48;102257.16;5192725;28;20065;-74
2024/01/31 04:57:01;;;;;;;3.58;0.70;;;;;;;6.67;97.49;102260.69;5194821;28;20032;-73
2024/01/31 04:59:35;;;;;;;1.45;0.50;;;;;;;6.69;97.56;102255.50;5196427;28;20443;-74
2024/01/31 05:02:07;;;;;;;1.40;0.50;;;;;;;6.72;97.23;102259.00;5194313;28;20037;-75
2024/01/31 05:04:42;;;;;;;2.25;0.43;;;;;;;6.76;96.48;102267.69;5197746;28;20152;-75
2024/01/31 05:07:12;;;;;;;1.95;0.50;;;;;;;6.82;96.17;102258.22;5196678;28;20044;-75
2024/01/31 05:09:42;;;;;;;2.95;0.40;;;;;;;6.75;96.33;102252.97;5197899;28;20267;-74
2024/01/31 05:12:13;;;;;;;1.33;0.35;;;;;;;6.69;96.82;102263.28;5197046;28;20465;-74
2024/01/31 05:14:43;;;;;;;3.65;0.65;;;;;;;6.70;96.12;102265.91;5196007;28;20025;-73
2024/01/31 05:17:15;;;;;;;1.98;0.47;;;;;;;6.67;96.58;102268.50;5196516;28;20110;-74
2024/01/31 05:19:46;;;;;;;2.20;0.50;;;;;;;6.67;97.01;102276.28;5197625;28;20549;-74
2024/01/31 05:22:16;;;;;;;0.93;0.40;;;;;;;6.71;97.22;102270.25;5195506;28;20021;-74
2024/01/31 05:24:46;;;;;;;1.33;0.40;;;;;;;6.74;97.27;102274.59;5197388;28;20048;-74
2024/01/31 05:27:16;;;;;;;2.80;0.50;;;;;;;6.80;97.94;102282.44;5197195;28;20502;-74
2024/01/31 05:29:47;;;;;;;0.80;0.35;;;;;;;6.72;98.07;102289.28;5197750;28;20036;-74
2024/01/31 05:32:17;;;;;;;2.50;0.65;;;;;;;6.64;100.00;102294.44;5196736;28;20033;-74
2024/01/31 05:34:48;;;;;;;2.42;0.40;;;;;;;6.57;100.00;102305.63;5196945;28;20479;-74
2024/01/31 05:37:18;;;;;;;1.63;0.60;;;;;;;6.54;100.00;102302.13;5195766;28;20021;-73
2024/01/31 05:39:49;;;;;;;1.77;0.60;;;;;;;6.38;100.00;102308.03;5193579;28;20079;-74
2024/01/31 05:42:19;;;;;;;1.90;0.60;;;;;;;6.39;100.00;102302.88;5195756;28;20032;-74
2024/01/31 05:44:51;;;;;;;1.98;0.70;;;;;;;6.41;100.00;102310.69;5197203;28;20044;-74
2024/01/31 05:47:21;;;;;;;1.30;0.57;;;;;;;6.28;100.00;102317.47;5195070;28;20818;-75
2024/01/31 05:49:51;;;;;;;1.27;0.60;;;;;;;6.19;100.00;102320.00;5197055;28;20029;-74
2024/01/31 05:52:21;;;;;;;1.70;0.70;;;;;;;6.29;100.00;102310.56;5194664;28;20057;-75
2024/01/31 05:54:52;;;;;;;1.40;0.80;;;;;;;6.33;100.00;102315.81;5197390;28;20033;-74
2024/01/31 05:57:23;;;;;;;1.20;0.57;;;;;;;6.24;100.00;102314.88;5196318;28;20036;-74
2024/01/31 05:59:53;;;;;;;1.45;0.90;;;;;;;6.31;100.00;102314.94;5196657;28;20608;-75
2024/01/31 06:02:23;;;;;;;1.88;0.90;;;;;;;6.20;100.00;102320.84;5196591;28;20033;-74
2024/01/31 06:04:53;;;;;;;1.60;0.73;;;;;;;6.21;100.00;102322.59;5196693;28;20040;-74
2024/01/31 06:07:24;;;;;;;1.50;0.80;;;;;;;6.09;100.00;102317.31;5196241;28;20044;-74
2024/01/31 06:09:54;;;;;;;2.17;0.82;;;;;;;6.13;100.00;102314.75;5196043;28;20497;-74
2024/01/31 06:12:24;;;;;;;3.42;1.08;;;;;;;6.15;100.00;102317.34;5194651;28;20033;-74
2024/01/31 06:14:54;;;;;;;3.13;0.90;;;;;;;6.02;100.00;102320.66;5196990;28;20207;-74
2024/01/31 06:17:25;;;;;;;2.80;0.90;;;;;;;6.01;100.00;102312.03;5195652;28;20520;-75
2024/01/31 06:19:55;;;;;;;1.80;1.00;;;;;;;6.20;100.00;102319.16;5197043;28;20554;-74
2024/01/31 06:22:26;;;;;;;1.60;1.00;;;;;;;6.21;100.00;102330.38;5196195;28;20029;-75
2024/01/31 06:24:56;;;;;;;1.92;0.68;;;;;;;6.17;100.00;102333.81;5195264;28;20017;-75
2024/01/31 06:27:26;;;;;;;3.60;0.77;;;;;;;6.26;100.00;102331.31;5195717;28;20156;-74
2024/01/31 06:29:59;;;;;;;0.85;0.68;;;;;;;6.26;100.00;102331.31;5196625;28;20552;-74
2024/01/31 06:32:32;;;;;;;3.17;0.75;;;;;;;6.23;100.00;102328.69;5196438;28;20060;-74
2024/01/31 06:35:02;;;;;;;2.35;0.68;;;;;;;6.25;100.00;102337.38;5195463;28;20029;-74
2024/01/31 06:37:33;;;;;;;2.22;0.90;;;;;;;6.19;100.00;102342.47;5192134;28;20091;-74
2024/01/31 06:40:03;;;;;;;2.40;0.90;;;;;;;6.28;100.00;102350.38;5195206;28;20064;-74
2024/01/31 06:42:34;;;;;;;2.40;0.88;;;;;;;6.24;100.00;102343.41;5194442;28;20056;-74
2024/01/31 06:45:04;;;;;;;3.42;0.88;;;;;;;6.27;100.00;102339.09;5195720;28;20033;-74
2024/01/31 06:47:34;;;;;;;1.02;0.52;;;;;;;6.22;100.00;102343.38;5195421;28;20025;-75
2024/01/31 06:50:05;;;;;;;0.90;0.60;;;;;;;6.19;99.44;102350.25;5195387;28;20526;-74
2024/01/31 06:52:36;;;;;;;0.95;0.60;;;;;;;6.22;99.52;102348.59;5195225;28;20120;-74
2024/01/31 06:55:06;;;;;;;0.82;0.43;;;;;;;6.27;98.73;102353.84;5192669;28;20029;-72
2024/01/31 06:57:37;;;;;;;1.20;0.50;;;;;;;6.15;98.94;102371.84;5194622;28;20029;-74
2024/01/31 07:00:12;;;;;;;2.47;0.50;;;;;;;6.20;98.60;102371.06;5197413;28;20095;-73
2024/01/31 07:02:42;;;;;;;1.73;0.60;;;;;;;6.33;98.63;102377.25;5197171;28;20286;-74
2024/01/31 07:05:13;;;;;;;1.17;0.73;;;;;;;6.33;98.60;102374.66;5195697;28;20095;-74
2024/01/31 07:07:43;;;;;;;3.50;0.77;;;;;;;6.26;98.07;102373.72;5198159;28;20048;-74
2024/01/31 07:10:13;;;;;;;2.42;0.50;;;;;;;6.23;98.01;102378.03;5191302;28;20108;-74
2024/01/31 07:12:44;;;;;;;1.75;0.60;;;;;;;6.28;97.75;102376.34;5195258;28;20041;-74
2024/01/31 07:15:17;;;;;;;2.45;0.88;;;;;;;6.28;97.05;102386.72;5197829;28;20368;-74
2024/01/31 07:17:47;;;;;;;2.20;0.65;;;;;;;6.29;97.88;102378.09;5194708;28;20048;-74
2024/01/31 07:20:17;;;;;;;2.17;0.93;;;;;;;6.30;97.73;102385.91;5197398;28;20176;-74
2024/01/31 07:22:48;;;;;;;1.52;0.60;;;;;;;6.26;98.15;102383.25;5196861;28;20525;-74
2024/01/31 07:25:18;;;;;;;2.38;0.60;;;;;;;6.24;98.18;102384.97;5195045;28;20033;-74
2024/01/31 07:27:50;;;;;;;1.95;0.57;;;;;;;6.16;98.30;102390.06;5197826;28;20119;-74
2024/01/31 07:30:20;;;;;;;3.35;0.68;;;;;;;6.35;97.63;102388.53;5197213;28;20025;-74
2024/01/31 07:32:50;;;;;;;3.38;0.75;;;;;;;6.26;96.70;102399.69;5199656;28;20482;-74
2024/01/31 07:35:24;;;;;;;4.18;0.60;;;;;;;6.18;96.04;102395.25;5199028;28;20075;-74
2024/01/31 07:37:55;;;;;;;2.15;0.52;;;;;;;6.28;96.03;102410.09;5195914;28;20060;-75
2024/01/31 07:40:25;;;;;;;2.03;0.65;;;;;;;6.39;95.70;102401.56;5198242;28;20068;-74
2024/01/31 07:42:56;;;;;;;1.08;0.68;;;;;;;6.14;94.16;102409.06;5197995;28;20127;-74
2024/01/31 07:45:27;;;;;;;0.90;0.50;;;;;;;6.23;93.00;102411.78;5198098;28;20037;-74
2024/01/31 07:47:57;;;;;;;1.90;0.90;;;;;;;6.32;91.40;102414.47;5199053;28;20029;-74
2024/01/31 07:50:27;;;;;;;3.15;1.00;;;;;;;6.21;91.56;102410.84;5197317;28;20438;-74
2024/01/31 07:52:57;;;;;;;2.03;0.95;;;;;;;6.22;91.51;102413.47;5196893;28;20128;-74
2024/01/31 07:55:28;;;;;;;6.78;1.55;;;;;;;6.20;91.48;102406.53;5195285;28;20029;-74
2024/01/31 07:57:58;;;;;;;4.40;2.33;;;;;;;6.03;90.50;102413.25;5198330;28;20021;-74
2024/01/31 08:00:28;;;;;;;5.07;2.70;;;;;;;6.11;90.58;102419.41;5197425;28;20030;-74
2024/01/31 08:02:59;;;;;;;13.55;5.38;;;;;;;6.12;90.78;102422.00;5196677;28;20063;-74
2024/01/31 08:05:29;;;;;;;10.48;4.68;;;;;;;6.20;90.58;102410.00;5195720;28;20037;-74
2024/01/31 08:07:59;;;;;;;6.97;4.20;;;;;;;6.12;90.26;102416.81;5197881;28;20522;-74
2024/01/31 08:10:30;;;;;;;5.57;3.13;;;;;;;6.11;89.86;102419.41;5194531;28;20116;-74
2024/01/31 08:13:00;;;;;;;5.50;2.97;;;;;;;6.10;90.93;102420.25;5196161;28;20040;-74
2024/01/31 08:15:31;;;;;;;7.43;4.22;;;;;;;6.19;90.51;102425.53;5196612;28;20052;-74
2024/01/31 08:18:02;;;;;;;8.23;3.95;;;;;;;6.04;91.36;102428.84;5199601;28;20150;-74
2024/01/31 08:20:32;;;;;;;8.48;3.30;;;;;;;6.08;90.39;102432.34;5198677;28;20112;-74
2024/01/31 08:23:02;;;;;;;4.68;2.90;;;;;;;6.16;90.78;102433.31;5199270;28;20022;-74
2024/01/31 08:25:33;;;;;;;6.05;2.10;;;;;;;6.21;89.54;102427.31;5198646;28;20382;-74
2024/01/31 08:28:04;;;;;;;4.85;1.90;;;;;;;6.11;90.69;102417.66;5198860;28;20116;-74
2024/01/31 08:30:34;;;;;;;4.90;2.47;;;;;;;6.25;90.84;102420.44;5199077;28;20057;-74
2024/01/31 08:33:05;;;;;;;4.97;2.90;;;;;;;6.20;90.75;102424.69;5196862;28;20065;-73
2024/01/31 08:35:35;;;;;;;5.45;2.97;;;;;;;6.27;90.54;102426.53;5196172;28;20033;-74
2024/01/31 08:38:05;;;;;;;3.85;2.08;;;;;;;6.23;91.05;102428.19;5198256;28;20017;-75
2024/01/31 08:40:36;;;;;;;3.22;1.25;;;;;;;6.16;91.61;102423.81;5198238;28;20021;-74
2024/01/31 08:43:06;;;;;;;2.90;1.10;;;;;;;6.16;91.32;102426.41;5199135;28;20087;-74
2024/01/31 08:45:36;;;;;;;4.25;0.75;;;;;;;6.13;91.21;102434.16;5197986;28;20040;-74
2024/01/31 08:48:07;;;;;;;4.68;1.35;;;;;;;6.04;91.56;102438.34;5197666;28;20075;-74
2024/01/31 08:50:38;;;;;;;6.00;2.40;;;;;;;6.15;91.16;102418.59;5198145;28;20041;-74
2024/01/31 08:53:08;;;;;;;2.85;0.80;;;;;;;6.00;90.62;102423.59;5198456;28;20696;-74
2024/01/31 08:55:38;;;;;;;4.75;2.05;;;;;;;6.21;90.64;102429.03;5196265;28;20073;-74
2024/01/31 08:58:09;;;;;;;3.92;2.00;;;;;;;6.11;89.81;102422.84;5197269;28;20106;-74
2024/01/31 09:00:39;;;;;;;5.30;1.77;;;;;;;6.20;90.43;102420.38;5198582;28;20283;-74
2024/01/31 09:03:09;;;;;;;5.05;1.20;;;;;;;6.32;89.83;102430.91;5198424;28;20033;-74
2024/01/31 09:05:39;;;;;;;5.45;0.82;;;;;;;6.32;88.76;102427.44;5195659;28;20047;-74
2024/01/31 09:08:10;;;;;;;2.33;0.77;;;;;;;6.36;88.18;102435.28;5198547;28;20416;-74
2024/01/31 09:10:40;;;;;;;2.97;0.88;;;;;;;6.45;87.50;102432.78;5197664;28;20549;-74
2024/01/31 09:13:10;;;;;;;1.75;0.55;;;;;;;6.41;87.63;102427.56;5198395;28;20032;-74
2024/01/31 09:15:41;;;;;;;5.80;2.08;;;;;;;6.46;88.32;102431.06;5197245;28;20336;-74
2024/01/31 09:18:12;;;;;;;1.55;0.80;;;;;;;6.39;86.65;102442.25;5198498;28;20025;-74
2024/01/31 09:20:42;;;;;;;2.70;0.60;;;;;;;6.37;86.14;102439.63;5197568;28;20431;-74
2024/01/31 09:23:13;;;;;;;2.00;0.63;;;;;;;6.49;86.80;102442.38;5197202;28;20120;-74
2024/01/31 09:25:43;;;;;;;2.47;0.57;;;;;;;6.49;86.62;102441.47;5195655;28;20033;-74
2024/01/31 09:28:13;;;;;;;2.08;0.70;;;;;;;6.54;86.89;102444.97;5197879;28;20037;-74
2024/01/31 09:30:44;;;;;;;2.60;0.60;;;;;;;6.50;87.92;102435.44;5194835;28;20116;-74
2024/01/31 09:33:14;;;;;;;2.05;0.60;;;;;;;6.45;87.06;102442.31;5195653;28;20095;-74
2024/01/31 09:35:44;;;;;;;1.25;0.60;;;;;;;6.47;87.07;102440.59;5197182;28;20025;-74
2024/01/31 09:38:14;;;;;;;3.63;0.90;;;;;;;6.45;86.17;102442.31;5197377;28;20444;-74
2024/01/31 09:40:45;;;;;;;2.03;0.77;;;;;;;6.39;87.57;102453.50;5197030;28;20083;-74
2024/01/31 09:43:16;;;;;;;5.45;1.88;;;;;;;6.51;87.16;102452.75;5197971;28;20470;-74
2024/01/31 09:45:47;;;;;;;4.82;1.63;;;;;;;6.63;86.84;102458.94;5196316;28;20136;-74
2024/01/31 09:48:19;;;;;;;2.95;1.25;;;;;;;6.72;86.15;102458.16;5197330;28;20496;-72
2024/01/31 09:50:49;;;;;;;5.55;2.40;;;;;;;6.68;85.69;102451.19;5196943;28;20430;-74
2024/01/31 09:53:22;;;;;;;7.10;3.45;;;;;;;6.72;85.98;102458.16;5195191;28;20025;-74
2024/01/31 09:55:56;;;;;;;2.05;0.80;;;;;;;6.62;85.93;102457.19;5195829;28;20032;-74
2024/01/31 09:58:26;;;;;;;1.98;0.73;;;;;;;6.79;85.53;102459.97;5197326;28;20022;-74
2024/01/31 10:01:00;;;;;;;9.40;1.13;;;;;;;6.62;85.94;102466.75;5198027;28;20091;-74
2024/01/31 10:03:30;;;;;;;3.08;1.13;;;;;;;6.66;86.08;102474.59;5195495;28;20171;-74
2024/01/31 10:06:03;;;;;;;4.38;1.27;;;;;;;6.58;85.58;102478.81;5197087;28;20040;-74
2024/01/31 10:08:35;;;;;;;3.10;1.40;;;;;;;6.55;86.45;102481.38;5196775;28;20021;-74
2024/01/31 10:11:06;;;;;;;2.85;1.30;;;;;;;6.69;86.05;102479.81;5194156;28;20671;-74
2024/01/31 10:13:37;;;;;;;3.35;1.15;;;;;;;6.76;85.91;102459.97;5195645;28;20149;-74
2024/01/31 10:16:07;;;;;;;2.17;0.93;;;;;;;6.47;85.89;102471.75;5196903;28;20134;-74
2024/01/31 10:18:38;;;;;;;4.55;1.52;;;;;;;6.68;86.77;102456.41;5197388;28;20597;-74
2024/01/31 10:21:10;;;;;;;8.77;2.20;;;;;;;6.81;86.04;102471.25;5197443;28;20091;-74
2024/01/31 10:23:40;;;;;;;3.65;1.20;;;;;;;6.77;85.85;102456.50;5196935;28;20040;-74
2024/01/31 10:26:11;;;;;;;2.58;1.50;;;;;;;6.77;85.83;102456.50;5195665;28;20434;-74
2024/01/31 10:28:41;;;;;;;2.45;1.25;;;;;;;6.67;86.17;102444.25;5195305;28;20100;-73
2024/01/31 10:31:13;;;;;;;3.80;1.20;;;;;;;6.75;85.70;102438.28;5197157;28;20059;-74
2024/01/31 10:33:44;;;;;;;5.60;1.20;;;;;;;6.84;85.25;102416.72;5197570;28;20061;-74
2024/01/31 10:36:17;;;;;;;4.07;1.50;;;;;;;6.87;85.08;102416.75;5199899;28;20029;-73
2024/01/31 10:38:48;;;;;;;2.92;1.42;;;;;;;6.75;84.62;102417.50;5200711;28;20263;-74
2024/01/31 10:41:20;;;;;;;3.38;1.15;;;;;;;6.80;86.13;102400.22;5201183;28;20022;-74
2024/01/31 10:43:52;;;;;;;4.90;1.40;;;;;;;6.82;85.72;102398.53;5199697;28;20057;-74
2024/01/31 10:46:22;;;;;;;2.83;1.52;;;;;;;6.65;85.82;102394.03;5200115;28;20029;-74
2024/01/31 10:48:53;;;;;;;5.93;1.95;;;;;;;6.74;85.77;102397.56;5198903;28;20026;-73
2024/01/31 10:51:24;;;;;;;5.43;1.80;;;;;;;6.63;87.01;102394.00;5193773;28;20037;-74
2024/01/31 10:53:56;;;;;;;1.98;1.20;;;;;;;6.86;85.94;102396.81;5200237;28;20033;-74
2024/01/31 10:56:27;;;;;;;4.00;1.30;;;;;;;6.71;86.27;102392.34;5199633;28;20048;-74
2024/01/31 10:58:57;;;;;;;1.88;0.95;;;;;;;6.87;86.17;102386.44;5200835;28;20056;-73
2024/01/31 11:01:31;;;;;;;4.10;1.15;;;;;;;6.92;85.17;102382.13;5200519;28;20406;-74
2024/01/31 11:04:05;;;;;;;5.90;1.48;;;;;;;7.03;85.14;102371.81;5200818;28;20041;-74
2024/01/31 11:06:40;;;;;;;22.10;9.77;;;;;;;6.97;85.98;102371.78;5199217;28;20033;-74
2024/01/31 11:09:28;;;;;;;4.57;2.50;;;;;;;6.98;85.39;102368.31;5200724;28;20057;-73
2024/01/31 11:12:08;;;;;;;2.42;1.08;;;;;;;6.91;86.11;102375.19;5200746;28;20536;-73
2024/01/31 11:14:41;;;;;;;2.17;0.98;;;;;;;7.06;85.77;102367.53;5200182;28;20037;-74
2024/01/31 11:17:18;;;;;;;1.52;0.90;;;;;;;7.07;85.88;102363.22;5200496;28;20505;-74
2024/01/31 11:19:56;;;;;;;1.75;1.15;;;;;;;6.89;86.11;102350.03;5198820;28;20390;-74
2024/01/31 11:22:28;;;;;;;1.27;0.80;;;;;;;7.06;85.85;102341.53;5199211;28;20030;-74
2024/01/31 11:24:59;;;;;;;1.42;0.70;;;;;;;7.11;86.03;102333.78;5198966;28;20379;-74
2024/01/31 11:27:30;;;;;;;1.10;0.70;;;;;;;7.13;84.73;102332.03;5197418;28;20044;-74
2024/01/31 11:30:02;;;;;;;0.95;0.75;;;;;;;7.11;84.99;102331.16;5200652;28;20025;-74
2024/01/31 11:32:33;;;;;;;2.72;0.88;;;;;;;7.12;85.00;102320.75;5196579;28;20021;-74
2024/01/31 11:35:06;;;;;;;4.22;0.88;;;;;;;6.97;86.08;102318.06;5200202;28;20380;-73
2024/01/31 11:37:37;;;;;;;4.53;0.85;;;;;;;7.09;85.24;102304.31;5198390;28;20033;-74
2024/01/31 11:40:08;;;;;;;2.13;1.00;;;;;;;6.99;86.38;102310.28;5200359;28;20021;-72
2024/01/31 11:42:38;;;;;;;1.48;0.82;;;;;;;7.07;86.03;102311.22;5199681;28;20036;-73
2024/01/31 11:45:09;;;;;;;1.77;1.05;;;;;;;7.14;86.47;102319.03;5199261;28;20272;-73